createdAt,value
2016-09-22T00:00:19.736Z,0
2016-09-22T00:01:19.720Z,0
2016-09-22T00:02:19.702Z,0
2016-09-22T00:03:19.668Z,0
2016-09-22T00:04:19.666Z,0
2016-09-22T00:05:19.656Z,0
2016-09-22T00:06:19.669Z,0
2016-09-22T00:07:19.660Z,0
2016-09-22T00:08:19.656Z,0
2016-09-22T00:09:19.627Z,0
2016-09-22T00:10:19.590Z,0
2016-09-22T00:11:19.577Z,0
2016-09-22T00:12:19.574Z,0
2016-09-22T00:13:19.523Z,0
2016-09-22T00:14:19.550Z,0
2016-09-22T00:15:19.539Z,0
2016-09-22T00:16:19.548Z,0
2016-09-22T00:17:19.522Z,0
2016-09-22T00:18:19.458Z,0
2016-09-22T00:19:19.498Z,0
2016-09-22T00:20:19.466Z,0
2016-09-22T00:21:19.438Z,0
2016-09-22T00:22:19.482Z,0
2016-09-22T00:23:19.430Z,0
2016-09-22T00:24:19.420Z,0
2016-09-22T00:25:19.370Z,0
2016-09-22T00:26:19.385Z,0
2016-09-22T00:27:19.368Z,0
2016-09-22T00:28:19.351Z,0
2016-09-22T00:29:19.382Z,0
2016-09-22T00:30:19.322Z,0
2016-09-22T00:31:19.327Z,0
2016-09-22T00:32:19.323Z,0
2016-09-22T00:33:19.295Z,0
2016-09-22T00:34:19.297Z,0
2016-09-22T00:35:19.296Z,0
2016-09-22T00:36:19.253Z,0
2016-09-22T00:37:19.272Z,0
2016-09-22T00:38:19.209Z,0
2016-09-22T00:39:19.201Z,0
2016-09-22T00:40:19.228Z,0
2016-09-22T00:41:19.190Z,0
2016-09-22T00:42:19.177Z,0
2016-09-22T00:43:19.197Z,0
2016-09-22T00:44:19.164Z,0
2016-09-22T00:45:19.161Z,0
2016-09-22T00:46:19.158Z,0
2016-09-22T00:47:19.138Z,0
2016-09-22T00:48:19.121Z,0
2016-09-22T00:49:19.086Z,0
2016-09-22T00:50:19.092Z,0
2016-09-22T00:51:19.073Z,0
2016-09-22T00:52:19.059Z,0
2016-09-22T00:53:19.047Z,0
2016-09-22T00:54:19.050Z,0
2016-09-22T00:55:18.995Z,0
2016-09-22T00:56:19.004Z,0
2016-09-22T00:57:18.984Z,0
2016-09-22T00:58:19.005Z,0
2016-09-22T00:59:19.013Z,0
2016-09-22T01:00:18.961Z,0
2016-09-22T01:01:18.938Z,0
2016-09-22T01:02:18.897Z,0
2016-09-22T01:03:18.912Z,0
2016-09-22T01:04:18.925Z,0
2016-09-22T01:05:18.865Z,0
2016-09-22T01:06:18.880Z,0
2016-09-22T01:07:18.867Z,0
2016-09-22T01:08:18.878Z,0
2016-09-22T01:09:18.860Z,0
2016-09-22T01:10:18.813Z,0
2016-09-22T01:11:18.803Z,0
2016-09-22T01:12:18.788Z,0
2016-09-22T01:13:18.829Z,0
2016-09-22T01:14:18.794Z,0
2016-09-22T01:15:18.795Z,0
2016-09-22T01:16:18.783Z,0
2016-09-22T01:17:18.748Z,0
2016-09-22T01:18:18.755Z,0
2016-09-22T01:19:18.732Z,0
2016-09-22T01:20:18.685Z,0
2016-09-22T01:21:18.681Z,0
2016-09-22T01:22:18.640Z,0
2016-09-22T01:23:18.657Z,0
2016-09-22T01:24:18.627Z,0
2016-09-22T01:25:18.677Z,0
2016-09-22T01:26:18.634Z,0
2016-09-22T01:27:18.656Z,0
2016-09-22T01:28:18.613Z,0
2016-09-22T01:29:18.572Z,0
2016-09-22T01:30:18.546Z,0
2016-09-22T01:31:18.563Z,0
2016-09-22T01:32:18.542Z,0
2016-09-22T01:33:18.542Z,0
2016-09-22T01:34:18.539Z,0
2016-09-22T01:35:18.512Z,0
2016-09-22T01:36:18.480Z,0
2016-09-22T01:37:18.467Z,0
2016-09-22T01:38:18.499Z,0
2016-09-22T01:39:18.442Z,0
2016-09-22T01:40:18.432Z,0
2016-09-22T01:41:18.447Z,0
2016-09-22T01:42:18.423Z,0
2016-09-22T01:43:18.385Z,0
2016-09-22T01:44:18.401Z,0
2016-09-22T01:45:18.377Z,0
2016-09-22T01:46:18.387Z,0
2016-09-22T01:47:18.374Z,0
2016-09-22T01:48:18.359Z,0
2016-09-22T01:49:18.309Z,0
2016-09-22T01:50:18.301Z,0
2016-09-22T01:51:18.317Z,0
2016-09-22T01:52:18.299Z,0
2016-09-22T01:53:18.273Z,0
2016-09-22T01:54:18.261Z,0
2016-09-22T01:55:18.280Z,0
2016-09-22T01:56:18.224Z,0
2016-09-22T01:57:18.219Z,0
2016-09-22T01:58:18.281Z,0
2016-09-22T01:59:18.224Z,0
2016-09-22T02:00:18.203Z,0
2016-09-22T02:01:18.183Z,0
2016-09-22T02:02:18.189Z,0
2016-09-22T02:03:18.126Z,0
2016-09-22T02:04:18.108Z,0
2016-09-22T02:05:18.102Z,0
2016-09-22T02:06:18.093Z,0
2016-09-22T02:07:18.099Z,0
2016-09-22T02:08:18.099Z,0
2016-09-22T02:09:18.098Z,0
2016-09-22T02:10:18.023Z,0
2016-09-22T02:11:18.025Z,0
2016-09-22T02:12:18.012Z,0
2016-09-22T02:13:18.012Z,0
2016-09-22T02:14:17.996Z,0
2016-09-22T02:15:17.979Z,0
2016-09-22T02:16:17.973Z,0
2016-09-22T02:17:17.940Z,0
2016-09-22T02:18:17.979Z,0
2016-09-22T02:19:17.931Z,0
2016-09-22T02:20:17.920Z,0
2016-09-22T02:21:17.899Z,0
2016-09-22T02:22:17.885Z,0
2016-09-22T02:23:17.899Z,0
2016-09-22T02:24:17.889Z,0
2016-09-22T02:25:17.854Z,0
2016-09-22T02:26:17.876Z,0
2016-09-22T02:27:17.840Z,0
2016-09-22T02:28:17.837Z,0
2016-09-22T02:29:17.846Z,0
2016-09-22T02:30:17.806Z,0
2016-09-22T02:31:17.776Z,0
2016-09-22T02:32:17.769Z,0
2016-09-22T02:33:17.734Z,0
2016-09-22T02:34:17.760Z,0
2016-09-22T02:35:17.753Z,0
2016-09-22T02:36:17.679Z,0
2016-09-22T02:37:17.716Z,0
2016-09-22T02:38:17.719Z,0
2016-09-22T02:39:17.692Z,0
2016-09-22T02:40:17.648Z,0
2016-09-22T02:41:17.655Z,0
2016-09-22T02:42:17.666Z,0
2016-09-22T02:43:17.642Z,0
2016-09-22T02:44:17.656Z,0
2016-09-22T02:45:17.594Z,0
2016-09-22T02:46:17.588Z,0
2016-09-22T02:47:17.567Z,0
2016-09-22T02:48:17.594Z,0
2016-09-22T02:49:17.565Z,0
2016-09-22T02:50:17.564Z,0
2016-09-22T02:51:17.526Z,0
2016-09-22T02:52:17.490Z,0
2016-09-22T02:53:17.518Z,0
2016-09-22T02:54:17.475Z,0
2016-09-22T02:55:17.471Z,0
2016-09-22T02:56:17.491Z,0
2016-09-22T02:57:17.425Z,0
2016-09-22T02:58:17.412Z,0
2016-09-22T02:59:17.422Z,0
2016-09-22T03:00:17.424Z,0
2016-09-22T03:01:17.371Z,0
2016-09-22T03:02:17.354Z,0
2016-09-22T03:03:17.359Z,0
2016-09-22T03:04:17.330Z,0
2016-09-22T03:05:17.317Z,0
2016-09-22T03:06:17.305Z,0
2016-09-22T03:07:17.319Z,0
2016-09-22T03:08:17.300Z,0
2016-09-22T03:09:17.276Z,0
2016-09-22T03:10:17.261Z,0
2016-09-22T03:11:17.269Z,0
2016-09-22T03:12:17.219Z,0
2016-09-22T03:13:17.240Z,0
2016-09-22T03:14:17.227Z,0
2016-09-22T03:15:17.238Z,0
2016-09-22T03:16:17.191Z,0
2016-09-22T03:17:17.157Z,0
2016-09-22T03:18:17.151Z,0
2016-09-22T03:19:17.138Z,0
2016-09-22T03:20:17.094Z,0
2016-09-22T03:21:17.153Z,0
2016-09-22T03:22:17.090Z,0
2016-09-22T03:23:17.100Z,0
2016-09-22T03:24:17.069Z,0
2016-09-22T03:25:17.030Z,0
2016-09-22T03:26:17.069Z,0
2016-09-22T03:27:17.045Z,0
2016-09-22T03:28:16.987Z,0
2016-09-22T03:29:17.007Z,0
2016-09-22T03:30:16.989Z,0
2016-09-22T03:31:17.001Z,0
2016-09-22T03:32:16.988Z,0
2016-09-22T03:33:16.937Z,0
2016-09-22T03:34:16.969Z,0
2016-09-22T03:35:16.926Z,0
2016-09-22T03:36:17.214Z,0
2016-09-22T03:37:16.899Z,0
2016-09-22T03:38:16.886Z,0
2016-09-22T03:39:16.882Z,0
2016-09-22T03:40:16.882Z,0
2016-09-22T03:41:16.823Z,0
2016-09-22T03:42:16.883Z,0
2016-09-22T03:43:16.807Z,0
2016-09-22T03:44:16.797Z,0
2016-09-22T03:45:16.827Z,0
2016-09-22T03:46:16.783Z,0
2016-09-22T03:47:16.753Z,0
2016-09-22T03:48:16.742Z,0
2016-09-22T03:49:16.684Z,0
2016-09-22T03:50:16.723Z,0
2016-09-22T03:51:16.695Z,0
2016-09-22T03:52:16.704Z,0
2016-09-22T03:53:16.732Z,0
2016-09-22T03:54:16.688Z,0
2016-09-22T03:55:16.644Z,0
2016-09-22T03:56:16.643Z,0
2016-09-22T03:57:16.600Z,0
2016-09-22T03:58:16.595Z,0
2016-09-22T03:59:16.606Z,0
2016-09-22T04:00:16.578Z,0
2016-09-22T04:01:16.554Z,0
2016-09-22T04:02:16.566Z,0
2016-09-22T04:03:16.594Z,0
2016-09-22T04:04:16.540Z,0
2016-09-22T04:05:16.558Z,0
2016-09-22T04:06:16.501Z,0
2016-09-22T04:07:16.480Z,0
2016-09-22T04:08:16.493Z,0
2016-09-22T04:09:16.456Z,0
2016-09-22T04:10:16.488Z,0
2016-09-22T04:11:16.419Z,0
2016-09-22T04:12:16.440Z,0
2016-09-22T04:13:16.392Z,0
2016-09-22T04:14:16.373Z,0
2016-09-22T04:15:16.369Z,0
2016-09-22T04:16:16.386Z,0
2016-09-22T04:17:16.363Z,0
2016-09-22T04:18:16.300Z,0
2016-09-22T04:19:16.325Z,0
2016-09-22T04:20:16.329Z,0
2016-09-22T04:21:16.281Z,0
2016-09-22T04:22:16.279Z,0
2016-09-22T04:23:16.275Z,0
2016-09-22T04:24:16.238Z,0
2016-09-22T04:25:16.257Z,0
2016-09-22T04:26:16.240Z,0
2016-09-22T04:27:16.246Z,0
2016-09-22T04:28:16.181Z,4
2016-09-22T04:29:16.202Z,0
2016-09-22T04:30:16.163Z,0
2016-09-22T04:31:16.154Z,4
2016-09-22T04:32:16.108Z,0
2016-09-22T04:33:16.154Z,4
2016-09-22T04:34:16.112Z,4
2016-09-22T04:35:16.088Z,4
2016-09-22T04:36:16.370Z,8
2016-09-22T04:37:16.059Z,8
2016-09-22T04:38:16.066Z,12
2016-09-22T04:39:16.044Z,12
2016-09-22T04:40:16.027Z,20
2016-09-22T04:41:16.054Z,20
2016-09-22T04:42:16.023Z,24
2016-09-22T04:43:15.957Z,32
2016-09-22T04:44:15.962Z,40
2016-09-22T04:45:15.981Z,48
2016-09-22T04:46:15.931Z,56
2016-09-22T04:47:15.921Z,68
2016-09-22T04:48:15.917Z,80
2016-09-22T04:49:15.893Z,96
2016-09-22T04:50:15.891Z,112
2016-09-22T04:51:15.841Z,136
2016-09-22T04:52:15.896Z,156
2016-09-22T04:53:15.840Z,184
2016-09-22T04:54:15.856Z,208
2016-09-22T04:55:15.869Z,240
2016-09-22T04:56:16.148Z,276
2016-09-22T04:57:15.784Z,316
2016-09-22T04:58:15.750Z,356
2016-09-22T04:59:15.758Z,404
2016-09-22T05:00:15.751Z,448
2016-09-22T05:01:15.702Z,504
2016-09-22T05:02:15.738Z,568
2016-09-22T05:03:15.724Z,644
2016-09-22T05:04:15.699Z,740
2016-09-22T05:05:15.691Z,864
2016-09-22T05:06:15.712Z,1028
2016-09-22T05:07:15.655Z,1184
2016-09-22T05:08:15.655Z,1328
2016-09-22T05:09:15.637Z,1464
2016-09-22T05:10:15.633Z,1600
2016-09-22T05:11:15.575Z,1764
2016-09-22T05:12:15.609Z,1948
2016-09-22T05:13:15.559Z,2120
2016-09-22T05:14:15.584Z,2276
2016-09-22T05:15:15.545Z,2436
2016-09-22T05:16:15.513Z,2592
2016-09-22T05:17:15.549Z,2736
2016-09-22T05:18:15.516Z,2776
2016-09-22T05:19:15.506Z,2944
2016-09-22T05:20:15.480Z,3284
2016-09-22T05:21:15.487Z,3404
2016-09-22T05:22:15.442Z,3460
2016-09-22T05:23:15.470Z,3352
2016-09-22T05:24:15.416Z,2984
2016-09-22T05:25:15.402Z,2624
2016-09-22T05:26:15.445Z,2556
2016-09-22T05:27:15.358Z,2632
2016-09-22T05:28:15.371Z,2716
2016-09-22T05:29:15.374Z,2796
2016-09-22T05:30:15.314Z,2900
2016-09-22T05:31:15.346Z,3056
2016-09-22T05:32:15.354Z,3232
2016-09-22T05:33:15.285Z,3412
2016-09-22T05:34:15.318Z,3660
2016-09-22T05:35:15.281Z,4228
2016-09-22T05:36:15.236Z,5392
2016-09-22T05:37:15.242Z,6268
2016-09-22T05:38:15.212Z,6572
2016-09-22T05:39:15.260Z,6668
2016-09-22T05:40:15.218Z,6708
2016-09-22T05:41:15.201Z,6788
2016-09-22T05:42:15.189Z,6892
2016-09-22T05:43:15.179Z,6916
2016-09-22T05:44:15.156Z,6944
2016-09-22T05:45:15.157Z,7060
2016-09-22T05:46:15.159Z,7224
2016-09-22T05:47:15.137Z,7472
2016-09-22T05:48:15.146Z,7456
2016-09-22T05:49:15.094Z,6560
2016-09-22T05:50:15.107Z,5336
2016-09-22T05:51:15.103Z,4696
2016-09-22T05:52:15.052Z,4496
2016-09-22T05:53:15.063Z,4508
2016-09-22T05:54:15.061Z,4552
2016-09-22T05:55:15.015Z,4612
2016-09-22T05:56:15.044Z,4660
2016-09-22T05:57:15.008Z,4724
2016-09-22T05:58:14.974Z,4780
2016-09-22T05:59:14.960Z,4848
2016-09-22T06:00:14.976Z,4912
2016-09-22T06:01:14.938Z,5012
2016-09-22T06:02:14.906Z,5152
2016-09-22T06:03:14.919Z,5296
2016-09-22T06:04:14.915Z,5460
2016-09-22T06:05:14.897Z,5676
2016-09-22T06:06:14.924Z,6492
2016-09-22T06:07:14.879Z,8624
2016-09-22T06:08:14.866Z,10632
2016-09-22T06:09:14.850Z,11104
2016-09-22T06:10:15.172Z,11972
2016-09-22T06:11:14.855Z,12832
2016-09-22T06:12:14.806Z,13432
2016-09-22T06:13:14.996Z,12752
2016-09-22T06:14:14.734Z,11848
2016-09-22T06:15:14.961Z,12368
2016-09-22T06:16:14.950Z,12072
2016-09-22T06:17:14.720Z,12132
2016-09-22T06:18:14.735Z,12748
2016-09-22T06:19:14.682Z,13028
2016-09-22T06:20:14.678Z,14248
2016-09-22T06:21:14.712Z,13676
2016-09-22T06:22:14.681Z,12500
2016-09-22T06:23:14.645Z,12720
2016-09-22T06:24:14.653Z,12968
2016-09-22T06:25:14.608Z,14224
2016-09-22T06:26:14.613Z,16544
2016-09-22T06:27:14.634Z,15828
2016-09-22T06:28:14.566Z,14360
2016-09-22T06:29:14.550Z,13404
2016-09-22T06:30:14.568Z,13008
2016-09-22T06:31:14.559Z,13752
2016-09-22T06:32:14.539Z,14832
2016-09-22T06:33:14.505Z,16384
2016-09-22T06:34:14.512Z,15968
2016-09-22T06:35:14.483Z,14372
2016-09-22T06:36:14.487Z,13976
2016-09-22T06:37:14.460Z,14064
2016-09-22T06:38:14.553Z,14584
2016-09-22T06:39:14.452Z,15688
2016-09-22T06:40:14.676Z,15260
2016-09-22T06:41:14.735Z,15180
2016-09-22T06:42:14.383Z,16832
2016-09-22T06:43:14.372Z,16800
2016-09-22T06:44:14.332Z,16224
2016-09-22T06:45:14.526Z,16512
2016-09-22T06:46:14.531Z,17184
2016-09-22T06:47:14.301Z,17248
2016-09-22T06:48:14.348Z,16640
2016-09-22T06:49:14.253Z,16224
2016-09-22T06:50:14.268Z,16096
2016-09-22T06:51:14.278Z,17600
2016-09-22T06:52:14.532Z,18080
2016-09-22T06:53:14.200Z,16448
2016-09-22T06:54:14.192Z,16064
2016-09-22T06:55:14.229Z,17984
2016-09-22T06:56:14.211Z,18144
2016-09-22T06:57:14.189Z,17920
2016-09-22T06:58:14.165Z,18016
2016-09-22T06:59:14.159Z,18624
2016-09-22T07:00:14.136Z,19232
2016-09-22T07:01:14.112Z,19456
2016-09-22T07:02:14.127Z,19456
2016-09-22T07:03:14.107Z,18400
2016-09-22T07:04:14.098Z,18976
2016-09-22T07:05:14.080Z,19584
2016-09-22T07:06:14.066Z,19104
2016-09-22T07:07:14.062Z,19520
2016-09-22T07:08:14.030Z,20384
2016-09-22T07:09:13.983Z,20160
2016-09-22T07:10:13.990Z,20256
2016-09-22T07:11:13.980Z,22304
2016-09-22T07:12:13.953Z,26368
2016-09-22T07:13:13.931Z,23744
2016-09-22T07:14:14.208Z,19328
2016-09-22T07:15:14.149Z,18304
2016-09-22T07:16:14.311Z,18368
2016-09-22T07:17:13.945Z,20608
2016-09-22T07:18:13.898Z,22080
2016-09-22T07:19:13.908Z,23936
2016-09-22T07:20:13.854Z,25056
2016-09-22T07:21:13.862Z,23648
2016-09-22T07:22:13.866Z,22688
2016-09-22T07:23:13.847Z,22848
2016-09-22T07:24:13.812Z,22912
2016-09-22T07:25:13.835Z,23520
2016-09-22T07:26:13.811Z,23712
2016-09-22T07:27:13.787Z,25504
2016-09-22T07:28:13.742Z,26496
2016-09-22T07:29:13.738Z,24928
2016-09-22T07:30:13.771Z,25504
2016-09-22T07:31:13.744Z,26400
2016-09-22T07:32:13.772Z,25216
2016-09-22T07:33:13.720Z,26560
2016-09-22T07:34:13.701Z,27616
2016-09-22T07:35:13.682Z,28128
2016-09-22T07:36:13.694Z,29536
2016-09-22T07:37:13.703Z,31008
2016-09-22T07:38:13.617Z,30944
2016-09-22T07:39:13.969Z,29760
2016-09-22T07:40:13.618Z,27232
2016-09-22T07:41:13.585Z,26240
2016-09-22T07:42:13.597Z,25056
2016-09-22T07:43:13.622Z,24512
2016-09-22T07:44:13.563Z,26528
2016-09-22T07:45:13.558Z,29824
2016-09-22T07:46:13.566Z,32672
2016-09-22T07:47:13.966Z,33056
2016-09-22T07:48:13.547Z,30880
2016-09-22T07:49:13.544Z,31392
2016-09-22T07:50:13.501Z,32864
2016-09-22T07:51:13.493Z,33760
2016-09-22T07:52:13.503Z,33280
2016-09-22T07:53:13.452Z,30272
2016-09-22T07:54:13.492Z,30240
2016-09-22T07:55:13.427Z,32544
2016-09-22T07:56:13.438Z,33024
2016-09-22T07:57:13.424Z,35072
2016-09-22T07:58:13.429Z,35904
2016-09-22T07:59:13.387Z,37152
2016-09-22T08:00:13.367Z,34144
2016-09-22T08:01:13.412Z,30304
2016-09-22T08:02:13.397Z,35168
2016-09-22T08:03:13.410Z,41184
2016-09-22T08:04:13.357Z,46432
2016-09-22T08:05:13.336Z,49568
2016-09-22T08:06:13.303Z,46848
2016-09-22T08:07:13.325Z,47168
2016-09-22T08:08:13.335Z,49184
2016-09-22T08:09:13.294Z,49024
2016-09-22T08:10:13.309Z,49024
2016-09-22T08:11:13.285Z,51264
2016-09-22T08:12:13.307Z,58272
2016-09-22T08:13:13.233Z,58624
2016-09-22T08:14:13.247Z,55872
2016-09-22T08:15:13.255Z,47584
2016-09-22T08:16:13.238Z,47520
2016-09-22T08:17:13.368Z,52160
2016-09-22T08:18:13.376Z,49824
2016-09-22T08:19:13.210Z,53888
2016-09-22T08:20:13.178Z,60160
2016-09-22T08:21:13.198Z,62368
2016-09-22T08:22:13.198Z,62496
2016-09-22T08:23:13.163Z,61088
2016-09-22T08:24:13.182Z,60768
2016-09-22T08:25:13.142Z,52192
2016-09-22T08:26:13.091Z,51328
2016-09-22T08:27:13.113Z,60160
2016-09-22T08:28:13.087Z,61184
2016-09-22T08:29:13.079Z,55424
2016-09-22T08:30:13.072Z,56480
2016-09-22T08:31:13.072Z,50656
2016-09-22T08:32:13.039Z,46368
2016-09-22T08:33:13.061Z,58528
2016-09-22T08:34:13.051Z,67008
2016-09-22T08:35:13.010Z,62784
2016-09-22T08:36:13.022Z,60960
2016-09-22T08:37:13.009Z,56512
2016-09-22T08:38:12.992Z,49568
2016-09-22T08:39:12.981Z,57312
2016-09-22T08:40:12.950Z,64192
2016-09-22T08:41:13.001Z,52864
2016-09-22T08:42:12.991Z,46816
2016-09-22T08:43:12.972Z,47680
2016-09-22T08:44:12.962Z,53408
2016-09-22T08:45:12.905Z,63392
2016-09-22T08:46:13.211Z,61920
2016-09-22T08:47:12.904Z,54880
2016-09-22T08:48:12.879Z,57920
2016-09-22T08:49:13.108Z,63264
2016-09-22T08:50:12.890Z,62144
2016-09-22T08:51:12.820Z,64128
2016-09-22T08:52:12.845Z,77280
2016-09-22T08:53:12.834Z,84672
2016-09-22T08:54:12.848Z,90368
2016-09-22T08:55:12.792Z,91936
2016-09-22T08:56:12.807Z,87936
2016-09-22T08:57:12.815Z,77952
2016-09-22T08:58:12.772Z,65120
2016-09-22T08:59:12.787Z,65792
2016-09-22T09:00:12.783Z,76320
2016-09-22T09:01:12.770Z,81504
2016-09-22T09:02:12.924Z,82432
2016-09-22T09:03:12.726Z,86208
2016-09-22T09:04:12.748Z,88192
2016-09-22T09:05:12.696Z,86592
2016-09-22T09:06:12.740Z,87616
2016-09-22T09:07:12.717Z,88544
2016-09-22T09:08:12.666Z,86528
2016-09-22T09:09:12.644Z,85568
2016-09-22T09:10:12.632Z,85632
2016-09-22T09:11:12.703Z,83872
2016-09-22T09:12:12.666Z,81760
2016-09-22T09:13:12.639Z,81088
2016-09-22T09:14:12.629Z,79968
2016-09-22T09:15:12.647Z,79648
2016-09-22T09:16:12.627Z,78304
2016-09-22T09:17:12.595Z,78400
2016-09-22T09:18:12.577Z,76384
2016-09-22T09:19:12.564Z,77600
2016-09-22T09:20:12.570Z,77696
2016-09-22T09:21:12.565Z,74944
2016-09-22T09:22:12.558Z,73216
2016-09-22T09:23:12.528Z,75328
2016-09-22T09:24:12.547Z,76224
2016-09-22T09:25:12.530Z,75808
2016-09-22T09:26:12.527Z,73728
2016-09-22T09:27:12.531Z,73696
2016-09-22T09:28:12.532Z,77888
2016-09-22T09:29:12.459Z,82016
2016-09-22T09:30:12.477Z,81376
2016-09-22T09:31:12.459Z,80064
2016-09-22T09:32:12.473Z,82432
2016-09-22T09:33:12.428Z,83488
2016-09-22T09:34:12.474Z,84128
2016-09-22T09:35:12.405Z,83296
2016-09-22T09:36:12.407Z,81952
2016-09-22T09:37:12.681Z,79520
2016-09-22T09:38:12.400Z,79168
2016-09-22T09:39:12.360Z,81024
2016-09-22T09:40:12.370Z,82272
2016-09-22T09:41:12.365Z,81024
2016-09-22T09:42:12.340Z,81152
2016-09-22T09:43:12.377Z,83168
2016-09-22T09:44:12.368Z,84640
2016-09-22T09:45:12.306Z,87136
2016-09-22T09:46:12.304Z,93344
2016-09-22T09:47:12.320Z,94528
2016-09-22T09:48:12.313Z,86176
2016-09-22T09:49:12.277Z,81472
2016-09-22T09:50:12.307Z,88256
2016-09-22T09:51:12.251Z,99072
2016-09-22T09:52:12.300Z,97376
2016-09-22T09:53:12.279Z,97760
2016-09-22T09:54:12.264Z,99520
2016-09-22T09:55:12.218Z,81312
2016-09-22T09:56:12.243Z,70400
2016-09-22T09:57:12.216Z,74272
2016-09-22T09:58:12.181Z,87072
2016-09-22T09:59:12.208Z,95360
2016-09-22T10:00:12.220Z,95552
2016-09-22T10:01:12.181Z,82528
2016-09-22T10:02:12.217Z,69312
2016-09-22T10:03:12.152Z,74624
2016-09-22T10:04:12.188Z,84128
2016-09-22T10:05:12.200Z,96352
2016-09-22T10:06:12.166Z,97216
2016-09-22T10:07:12.154Z,77120
2016-09-22T10:08:12.145Z,70336
2016-09-22T10:09:12.114Z,74208
2016-09-22T10:10:12.147Z,78272
2016-09-22T10:11:12.144Z,80704
2016-09-22T10:12:12.090Z,78976
2016-09-22T10:13:12.079Z,76448
2016-09-22T10:14:12.094Z,83584
2016-09-22T10:15:12.052Z,97440
2016-09-22T10:16:12.059Z,97120
2016-09-22T10:17:12.095Z,80992
2016-09-22T10:18:12.064Z,66400
2016-09-22T10:19:12.056Z,59264
2016-09-22T10:20:12.013Z,50688
2016-09-22T10:21:12.012Z,43552
2016-09-22T10:22:12.030Z,41280
2016-09-22T10:23:12.009Z,38912
2016-09-22T10:24:12.020Z,36288
2016-09-22T10:25:11.993Z,31584
2016-09-22T10:26:11.976Z,28736
2016-09-22T10:27:11.987Z,28288
2016-09-22T10:28:11.950Z,27552
2016-09-22T10:29:11.941Z,26912
2016-09-22T10:30:12.124Z,26656
2016-09-22T10:31:11.929Z,27936
2016-09-22T10:32:11.941Z,29952
2016-09-22T10:33:12.278Z,31872
2016-09-22T10:34:11.923Z,41760
2016-09-22T10:35:11.889Z,65472
2016-09-22T10:36:11.906Z,92224
2016-09-22T10:37:11.901Z,107744
2016-09-22T10:38:11.857Z,121856
2016-09-22T10:39:11.827Z,140960
2016-09-22T10:40:11.852Z,152512
2016-09-22T10:41:11.885Z,180000
2016-09-22T10:42:11.833Z,198816
2016-09-22T10:43:11.827Z,188288
2016-09-22T10:44:11.974Z,138144
2016-09-22T10:45:11.840Z,92096
2016-09-22T10:46:11.815Z,46048
2016-09-22T10:47:11.788Z,34656
2016-09-22T10:48:11.789Z,30336
2016-09-22T10:49:11.792Z,31872
2016-09-22T10:50:11.760Z,32256
2016-09-22T10:51:11.759Z,33824
2016-09-22T10:52:11.785Z,36000
2016-09-22T10:53:11.717Z,39808
2016-09-22T10:54:11.744Z,46016
2016-09-22T10:55:11.731Z,52032
2016-09-22T10:56:11.702Z,57152
2016-09-22T10:57:11.721Z,59776
2016-09-22T10:58:11.672Z,61856
2016-09-22T10:59:11.697Z,73088
2016-09-22T11:00:11.667Z,82144
2016-09-22T11:01:11.682Z,94944
2016-09-22T11:02:11.659Z,100320
2016-09-22T11:03:11.645Z,97824
2016-09-22T11:04:11.652Z,93056
2016-09-22T11:05:11.626Z,86144
2016-09-22T11:06:11.623Z,88000
2016-09-22T11:07:11.564Z,96736
2016-09-22T11:08:11.577Z,104544
2016-09-22T11:09:11.600Z,99936
2016-09-22T11:10:11.559Z,95392
2016-09-22T11:11:11.573Z,90688
2016-09-22T11:12:11.561Z,79840
2016-09-22T11:13:11.569Z,85152
2016-09-22T11:14:11.545Z,103104
2016-09-22T11:15:11.524Z,102208
2016-09-22T11:16:11.533Z,92704
2016-09-22T11:17:11.507Z,86368
2016-09-22T11:18:11.484Z,85600
2016-09-22T11:19:11.488Z,84608
2016-09-22T11:20:11.479Z,92064
2016-09-22T11:21:11.474Z,107680
2016-09-22T11:22:11.490Z,110848
2016-09-22T11:23:11.457Z,89056
2016-09-22T11:24:11.415Z,73888
2016-09-22T11:25:11.442Z,78560
2016-09-22T11:26:11.457Z,85248
2016-09-22T11:27:11.449Z,81504
2016-09-22T11:28:11.464Z,86848
2016-09-22T11:29:11.403Z,96160
2016-09-22T11:30:11.413Z,95392
2016-09-22T11:31:11.408Z,88800
2016-09-22T11:32:11.389Z,85600
2016-09-22T11:33:11.408Z,86784
2016-09-22T11:34:11.411Z,86496
2016-09-22T11:35:11.382Z,84864
2016-09-22T11:36:11.392Z,86784
2016-09-22T11:37:11.384Z,89760
2016-09-22T11:38:11.388Z,106592
2016-09-22T11:39:11.314Z,137568
2016-09-22T11:40:11.331Z,140032
2016-09-22T11:41:11.321Z,102752
2016-09-22T11:42:11.334Z,76352
2016-09-22T11:43:11.308Z,73536
2016-09-22T11:44:11.327Z,76960
2016-09-22T11:45:11.302Z,81184
2016-09-22T11:46:11.316Z,80736
2016-09-22T11:47:11.344Z,80928
2016-09-22T11:48:11.304Z,83040
2016-09-22T11:49:11.285Z,84192
2016-09-22T11:50:11.282Z,84672
2016-09-22T11:51:11.307Z,87456
2016-09-22T11:52:11.286Z,92192
2016-09-22T11:53:11.284Z,95904
2016-09-22T11:54:11.277Z,98816
2016-09-22T11:55:11.239Z,99296
2016-09-22T11:56:11.206Z,98496
2016-09-22T11:57:11.227Z,99136
2016-09-22T11:58:11.252Z,97664
2016-09-22T11:59:11.231Z,96864
2016-09-22T12:00:11.208Z,95136
2016-09-22T12:01:11.219Z,90528
2016-09-22T12:02:11.184Z,87904
2016-09-22T12:03:11.226Z,87744
2016-09-22T12:04:11.185Z,86016
2016-09-22T12:05:11.209Z,85600
2016-09-22T12:06:11.212Z,85696
2016-09-22T12:07:11.180Z,85248
2016-09-22T12:08:11.174Z,83840
2016-09-22T12:09:11.192Z,85280
2016-09-22T12:10:11.142Z,86592
2016-09-22T12:11:11.188Z,87264
2016-09-22T12:12:11.153Z,88480
2016-09-22T12:13:11.139Z,89472
2016-09-22T12:14:11.139Z,89312
2016-09-22T12:15:11.139Z,89440
2016-09-22T12:16:11.136Z,88960
2016-09-22T12:17:11.095Z,88416
2016-09-22T12:18:11.108Z,89568
2016-09-22T12:19:11.094Z,88320
2016-09-22T12:20:11.119Z,86400
2016-09-22T12:21:11.091Z,84768
2016-09-22T12:22:11.085Z,84928
2016-09-22T12:23:11.060Z,86752
2016-09-22T12:24:11.034Z,87552
2016-09-22T12:25:11.081Z,85664
2016-09-22T12:26:11.031Z,83584
2016-09-22T12:27:11.067Z,82016
2016-09-22T12:28:11.023Z,82592
2016-09-22T12:29:11.065Z,83328
2016-09-22T12:30:11.028Z,80736
2016-09-22T12:31:11.068Z,78272
2016-09-22T12:32:11.041Z,78432
2016-09-22T12:33:11.013Z,75136
2016-09-22T12:34:10.973Z,73344
2016-09-22T12:35:10.990Z,82432
2016-09-22T12:36:10.984Z,102880
2016-09-22T12:37:10.990Z,112832
2016-09-22T12:38:11.005Z,95264
2016-09-22T12:39:11.011Z,84640
2016-09-22T12:40:10.977Z,79712
2016-09-22T12:41:10.979Z,82208
2016-09-22T12:42:10.977Z,83392
2016-09-22T12:43:10.935Z,83424
2016-09-22T12:44:11.323Z,75776
2016-09-22T12:45:10.944Z,72288
2016-09-22T12:46:10.925Z,77504
2016-09-22T12:47:10.908Z,72832
2016-09-22T12:48:10.899Z,66368
2016-09-22T12:49:10.932Z,69312
2016-09-22T12:50:10.904Z,69376
2016-09-22T12:51:10.862Z,69120
2016-09-22T12:52:10.911Z,69952
2016-09-22T12:53:10.918Z,73056
2016-09-22T12:54:10.878Z,75616
2016-09-22T12:55:10.912Z,74912
2016-09-22T12:56:10.905Z,73664
2016-09-22T12:57:10.881Z,71904
2016-09-22T12:58:10.855Z,72672
2016-09-22T12:59:10.847Z,70432
2016-09-22T13:00:10.842Z,72448
2016-09-22T13:01:10.876Z,69984
2016-09-22T13:02:10.827Z,68192
2016-09-22T13:03:10.845Z,65952
2016-09-22T13:04:10.783Z,65280
2016-09-22T13:05:10.832Z,65376
2016-09-22T13:06:10.798Z,69536
2016-09-22T13:07:10.836Z,71744
2016-09-22T13:08:10.810Z,67552
2016-09-22T13:09:10.780Z,63904
2016-09-22T13:10:10.785Z,64448
2016-09-22T13:11:10.770Z,67424
2016-09-22T13:12:10.784Z,68320
2016-09-22T13:13:10.777Z,73696
2016-09-22T13:14:10.778Z,78272
2016-09-22T13:15:10.772Z,82848
2016-09-22T13:16:10.722Z,25280
2016-09-22T13:17:10.747Z,70304
2016-09-22T13:18:10.754Z,68032
2016-09-22T13:19:10.756Z,65056
2016-09-22T13:20:11.028Z,62400
2016-09-22T13:21:10.746Z,58048
2016-09-22T13:22:10.740Z,56576
2016-09-22T13:23:11.052Z,58560
2016-09-22T13:24:10.719Z,62432
2016-09-22T13:25:10.747Z,65856
2016-09-22T13:26:10.687Z,69120
2016-09-22T13:27:10.710Z,71968
2016-09-22T13:28:10.708Z,72032
2016-09-22T13:29:10.719Z,73536
2016-09-22T13:30:10.652Z,73024
2016-09-22T13:31:10.665Z,70912
2016-09-22T13:32:10.649Z,72864